Time;durP1;ratioP1;P1;durP2;ratioP2;P2;SDS_P1;SDS_P2;PMS_P1;PMS_P2;Temp;Humidity;BMP_temperature;BMP_pressure;BME280_temperature;BME280_humidity;BME280_pressure;Samples;Min_cycle;Max_cycle;Signal;HPM_P1;HPM_P2
2022/08/28 00:02:08;;;;;;;12.20;4.35;;;;;;;;;;5111077;28;20042;-72
2022/08/28 00:06:22;;;;;;;11.02;4.68;;;;;;;;;;5111657;27;20916;-72
2022/08/28 00:08:48;;;;;;;8.35;4.05;;;;;;;;;;5111474;28;20481;-72
2022/08/28 00:11:14;;;;;;;7.70;4.20;;;;;;;;;;5110724;28;20020;-72
2022/08/28 00:13:40;;;;;;;9.18;4.45;;;;;;;;;;5111409;28;20028;-72
2022/08/28 00:16:06;;;;;;;10.98;3.97;;;;;;;;;;5111164;28;20103;-71
2022/08/28 00:18:32;;;;;;;9.40;4.43;;;;;;;;;;5110786;28;20036;-73
2022/08/28 00:21:50;;;;;;;8.85;4.53;;;;;;;;;;5112050;27;20426;-72
2022/08/28 00:24:16;;;;;;;8.52;4.03;;;;;;;;;;5110939;28;20034;-71
2022/08/28 00:28:45;;;;;;;7.82;3.92;;;;;;;;;;5111813;27;20453;-72
2022/08/28 00:31:12;;;;;;;10.30;4.43;;;;;;;;;;5111173;28;20028;-71
2022/08/28 00:34:14;;;;;;;6.97;3.60;;;;;;;;;;5111706;27;20535;-72
2022/08/28 00:36:41;;;;;;;9.45;4.45;;;;;;;;;;5111330;28;20533;-71
2022/08/28 00:39:25;;;;;;;8.90;4.82;;;;;;;;;;5111171;27;20834;-72
2022/08/28 00:41:51;;;;;;;7.55;4.05;;;;;;;;;;5110027;28;20058;-72
2022/08/28 00:44:18;;;;;;;10.45;4.80;;;;;;;;;;5109903;28;20031;-71
2022/08/28 00:48:03;;;;;;;13.25;4.32;;;;;;;;;;5111381;27;20388;-71
2022/08/28 00:52:04;;;;;;;7.72;4.05;;;;;;;;;;5111393;28;20027;-71
2022/08/28 00:54:44;;;;;;;9.63;4.30;;;;;;;;;;5112171;27;20392;-71
2022/08/28 00:57:13;;;;;;;10.00;4.75;;;;;;;;;;5111295;28;20387;-71
2022/08/28 01:02:08;;;;;;;14.05;4.35;;;;;;;;;;5091379;28;20547;-71
2022/08/28 01:05:15;;;;;;;10.77;4.90;;;;;;;;;;5111700;27;20427;-71
2022/08/28 01:08:00;;;;;;;9.57;4.50;;;;;;;;;;5110939;27;20380;-71
2022/08/28 01:10:28;;;;;;;9.52;4.82;;;;;;;;;;5111383;28;20413;-71
2022/08/28 01:13:47;;;;;;;10.13;4.43;;;;;;;;;;5111639;27;20401;-71
2022/08/28 01:16:15;;;;;;;11.45;5.47;;;;;;;;;;5111580;28;20138;-71
2022/08/28 01:18:42;;;;;;;9.38;4.30;;;;;;;;;;5111250;28;20027;-70
2022/08/28 01:24:23;;;;;;;10.75;4.40;;;;;;;;;;5111852;27;20400;-71
2022/08/28 01:28:44;;;;;;;13.23;4.80;;;;;;;;;;5110980;27;20393;-71
2022/08/28 01:31:11;;;;;;;12.20;4.80;;;;;;;;;;5111411;28;20387;-71
2022/08/28 01:33:38;;;;;;;10.25;4.63;;;;;;;;;;5111482;28;20023;-71
2022/08/28 01:36:04;;;;;;;9.90;4.28;;;;;;;;;;5110912;28;20016;-71
2022/08/28 01:40:43;;;;;;;7.80;4.53;;;;;;;;;;5111992;27;20385;-71
2022/08/28 01:45:00;;;;;;;8.48;3.78;;;;;;;;;;5111375;27;20384;-71
2022/08/28 01:48:30;;;;;;;8.68;4.63;;;;;;;;;;5111504;27;20438;-71
2022/08/28 01:50:56;;;;;;;7.97;3.97;;;;;;;;;;5111309;28;20089;-70
2022/08/28 01:53:24;;;;;;;11.00;4.93;;;;;;;;;;5111450;28;20016;-72
2022/08/28 01:55:51;;;;;;;8.35;4.05;;;;;;;;;;5111117;28;20509;-71
2022/08/28 02:00:21;;;;;;;11.82;4.82;;;;;;;;;;5111308;27;20393;-72
2022/08/28 02:02:50;;;;;;;9.90;5.03;;;;;;;;;;5110879;28;20610;-71
2022/08/28 02:06:21;;;;;;;9.65;4.72;;;;;;;;;;5111241;27;20380;-71
2022/08/28 02:09:52;;;;;;;13.80;4.50;;;;;;;;;;5111619;27;20397;-71
2022/08/28 02:12:19;;;;;;;9.75;4.15;;;;;;;;;;5111348;28;20390;-71
2022/08/28 02:14:45;;;;;;;8.43;4.15;;;;;;;;;;5111275;28;20085;-71
2022/08/28 02:17:11;;;;;;;10.00;4.63;;;;;;;;;;5110845;28;20387;-71
2022/08/28 02:19:37;;;;;;;7.85;4.85;;;;;;;;;;5111136;28;20019;-71
2022/08/28 02:22:33;;;;;;;11.45;4.70;;;;;;;;;;5112021;27;20818;-70
2022/08/28 02:25:19;;;;;;;8.82;4.47;;;;;;;;;;5111020;27;20392;-71
2022/08/28 02:27:46;;;;;;;8.18;4.50;;;;;;;;;;5111504;28;20024;-71
2022/08/28 02:30:41;;;;;;;9.02;4.90;;;;;;;;;;5111629;27;20414;-71
2022/08/28 02:33:07;;;;;;;8.60;4.13;;;;;;;;;;5111285;28;20032;-71
2022/08/28 02:36:13;;;;;;;8.65;4.53;;;;;;;;;;5111546;27;20980;-70
2022/08/28 02:39:09;;;;;;;9.55;4.75;;;;;;;;;;5111167;27;20489;-71
2022/08/28 02:41:35;;;;;;;11.35;5.18;;;;;;;;;;5111623;28;20044;-71
2022/08/28 02:44:01;;;;;;;8.23;4.03;;;;;;;;;;5110000;28;20035;-72
2022/08/28 02:46:28;;;;;;;8.02;4.03;;;;;;;;;;5110763;28;20562;-72
2022/08/28 02:48:55;;;;;;;11.15;5.30;;;;;;;;;;5111179;28;20098;-72
2022/08/28 02:51:21;;;;;;;11.15;5.75;;;;;;;;;;5111214;28;20024;-72
2022/08/28 02:54:55;;;;;;;8.02;4.43;;;;;;;;;;5111880;27;20127;-71
2022/08/28 02:59:17;;;;;;;8.63;4.32;;;;;;;;;;5111398;27;20457;-71
2022/08/28 03:04:12;;;;;;;10.00;4.20;;;;;;;;;;5112146;27;20380;-71
2022/08/28 03:06:38;;;;;;;14.90;4.80;;;;;;;;;;5109682;28;20031;-71
2022/08/28 03:12:48;;;;;;;9.05;4.72;;;;;;;;;;5111754;27;20469;-71
2022/08/28 03:15:15;;;;;;;8.48;4.25;;;;;;;;;;5127217;28;20055;-70
2022/08/28 03:17:42;;;;;;;9.32;5.00;;;;;;;;;;5111416;28;20016;-71
2022/08/28 03:20:09;;;;;;;9.95;5.15;;;;;;;;;;5111078;28;20058;-71
2022/08/28 03:25:24;;;;;;;9.60;4.75;;;;;;;;;;5112152;27;20960;-71
2022/08/28 03:27:50;;;;;;;8.88;4.93;;;;;;;;;;5111043;28;20487;-70
2022/08/28 03:31:20;;;;;;;11.60;6.85;;;;;;;;;;5112252;27;20457;-71
2022/08/28 03:34:12;;;;;;;13.77;6.57;;;;;;;;;;5111586;27;20418;-71
2022/08/28 03:37:44;;;;;;;11.63;4.97;;;;;;;;;;5112058;27;20826;-70
2022/08/28 03:40:11;;;;;;;10.23;4.78;;;;;;;;;;5111746;28;20102;-71
2022/08/28 03:42:37;;;;;;;7.63;4.47;;;;;;;;;;5110902;28;20027;-71
2022/08/28 03:46:21;;;;;;;9.13;4.63;;;;;;;;;;5111831;27;20401;-71
2022/08/28 03:48:47;;;;;;;12.77;4.57;;;;;;;;;;5109651;28;20498;-71
2022/08/28 03:51:16;;;;;;;9.63;4.95;;;;;;;;;;5111325;28;20016;-71
2022/08/28 03:57:22;;;;;;;8.38;4.90;;;;;;;;;;5111517;27;20401;-71
2022/08/28 03:59:50;;;;;;;10.55;4.68;;;;;;;;;;5111362;28;20027;-71
2022/08/28 04:02:18;;;;;;;9.52;4.80;;;;;;;;;;5110888;28;20050;-71
2022/08/28 04:04:46;;;;;;;13.02;5.50;;;;;;;;;;5111501;28;20020;-71
2022/08/28 04:08:16;;;;;;;12.30;5.03;;;;;;;;;;5111922;27;20381;-72
2022/08/28 04:14:53;;;;;;;9.05;4.85;;;;;;;;;;5111716;27;20426;-71
2022/08/28 04:20:08;;;;;;;11.23;4.65;;;;;;;;;;5112028;27;20460;-71
2022/08/28 04:22:36;;;;;;;11.02;5.25;;;;;;;;;;5111367;28;20106;-71
2022/08/28 04:25:10;;;;;;;7.03;4.03;;;;;;;;;;5111064;27;20624;-71
2022/08/28 04:28:28;;;;;;;9.18;5.43;;;;;;;;;;5091815;27;20913;-71
2022/08/28 04:30:54;;;;;;;7.55;4.28;;;;;;;;;;5090606;28;20108;-71
2022/08/28 04:34:26;;;;;;;14.90;4.65;;;;;;;;;;5112139;27;20384;-71
2022/08/28 04:37:15;;;;;;;15.77;5.53;;;;;;;;;;5111768;27;20537;-71
2022/08/28 04:39:41;;;;;;;9.98;5.28;;;;;;;;;;5110096;28;20023;-71
2022/08/28 04:42:07;;;;;;;10.38;5.20;;;;;;;;;;5110015;28;20418;-71
2022/08/28 04:44:33;;;;;;;12.70;4.95;;;;;;;;;;5110958;28;20024;-72
2022/08/28 04:47:00;;;;;;;10.15;4.63;;;;;;;;;;5111211;28;20497;-72
2022/08/28 04:49:53;;;;;;;8.45;4.60;;;;;;;;;;5112070;27;20872;-71
2022/08/28 04:52:19;;;;;;;9.43;5.05;;;;;;;;;;5111186;28;20479;-71
2022/08/28 05:00:10;;;;;;;11.93;5.43;;;;;;;;;;5111063;27;20571;-71
2022/08/28 05:02:37;;;;;;;8.45;4.57;;;;;;;;;;5111365;28;20023;-71
2022/08/28 05:08:29;;;;;;;11.38;5.20;;;;;;;;;;5111987;27;20393;-71
2022/08/28 05:11:44;;;;;;;12.05;4.60;;;;;;;;;;5111761;27;20799;-71
2022/08/28 05:14:10;;;;;;;11.00;5.28;;;;;;;;;;5110988;28;20035;-71
2022/08/28 05:16:41;;;;;;;10.80;4.30;;;;;;;;;;5111366;28;20028;-71
2022/08/28 05:20:04;;;;;;;11.50;4.35;;;;;;;;;;5111499;27;20400;-71
2022/08/28 05:22:32;;;;;;;11.02;5.32;;;;;;;;;;5111387;28;20024;-71
2022/08/28 05:24:59;;;;;;;13.07;6.28;;;;;;;;;;5111334;28;20084;-70
2022/08/28 05:27:26;;;;;;;11.52;5.60;;;;;;;;;;5111071;28;20012;-71
2022/08/28 05:29:52;;;;;;;14.13;6.82;;;;;;;;;;5111308;28;20391;-72
2022/08/28 05:32:19;;;;;;;15.02;5.75;;;;;;;;;;5111249;28;20034;-72
2022/08/28 05:34:45;;;;;;;11.48;5.20;;;;;;;;;;5110981;28;20016;-73
2022/08/28 05:37:11;;;;;;;13.50;5.85;;;;;;;;;;5111373;28;20414;-73
2022/08/28 05:39:37;;;;;;;12.57;5.63;;;;;;;;;;5111001;28;20115;-73
2022/08/28 05:42:04;;;;;;;9.63;5.03;;;;;;;;;;5110713;28;20030;-73
2022/08/28 05:44:30;;;;;;;10.63;4.68;;;;;;;;;;5111158;28;20024;-73
2022/08/28 05:46:57;;;;;;;14.05;5.20;;;;;;;;;;5111346;28;20020;-72
2022/08/28 05:49:35;;;;;;;12.18;5.75;;;;;;;;;;5111601;27;20392;-71
2022/08/28 05:53:33;;;;;;;15.50;5.75;;;;;;;;;;5071415;28;20383;-70
2022/08/28 05:55:59;;;;;;;11.98;6.25;;;;;;;;;;5070545;28;20100;-71
2022/08/28 05:58:28;;;;;;;13.82;5.10;;;;;;;;;;5070727;28;20476;-71
2022/08/28 06:00:56;;;;;;;9.13;5.15;;;;;;;;;;5070572;28;20052;-72
2022/08/28 06:04:13;;;;;;;14.77;5.07;;;;;;;;;;5111774;27;20418;-71
2022/08/28 06:07:27;;;;;;;10.50;5.70;;;;;;;;;;5111582;27;20835;-72
2022/08/28 06:09:53;;;;;;;10.68;4.85;;;;;;;;;;5126762;28;20047;-71
2022/08/28 06:12:20;;;;;;;11.38;5.00;;;;;;;;;;5111432;28;20062;-72
2022/08/28 06:14:46;;;;;;;9.23;4.45;;;;;;;;;;5111213;28;20430;-72
2022/08/28 06:17:12;;;;;;;10.73;5.60;;;;;;;;;;5110817;28;20055;-72
2022/08/28 06:19:38;;;;;;;11.63;5.72;;;;;;;;;;5111166;28;20055;-72
2022/08/28 06:22:05;;;;;;;13.02;5.40;;;;;;;;;;5111128;28;20047;-71
2022/08/28 06:24:32;;;;;;;11.10;5.80;;;;;;;;;;5110622;28;20028;-72
2022/08/28 06:28:12;;;;;;;10.23;4.82;;;;;;;;;;5111902;27;20473;-71
2022/08/28 06:30:38;;;;;;;9.13;5.18;;;;;;;;;;5111134;28;20047;-71
2022/08/28 06:33:04;;;;;;;10.32;5.65;;;;;;;;;;5111499;28;20099;-71
2022/08/28 06:35:31;;;;;;;12.73;5.82;;;;;;;;;;5111232;28;20101;-72
2022/08/28 06:43:34;;;;;;;13.43;5.60;;;;;;;;;;5111873;27;20400;-71
2022/08/28 06:46:36;;;;;;;10.75;5.10;;;;;;;;;;5113242;27;20392;-71
2022/08/28 06:49:03;;;;;;;8.90;4.80;;;;;;;;;;5112826;28;20073;-71
2022/08/28 06:57:58;;;;;;;12.35;5.80;;;;;;;;;;5111207;27;20408;-72
2022/08/28 07:00:24;;;;;;;13.73;4.88;;;;;;;;;;5111307;28;20027;-73
2022/08/28 07:02:51;;;;;;;9.25;4.50;;;;;;;;;;5111229;28;20030;-72
2022/08/28 07:09:51;;;;;;;11.25;5.20;;;;;;;;;;5111489;27;20396;-72
2022/08/28 07:12:17;;;;;;;19.98;5.03;;;;;;;;;;5110834;28;20032;-72
2022/08/28 07:14:43;;;;;;;9.80;3.92;;;;;;;;;;5127069;28;20028;-73
2022/08/28 07:17:10;;;;;;;7.85;4.38;;;;;;;;;;5111588;28;20027;-72
2022/08/28 07:19:36;;;;;;;9.60;4.53;;;;;;;;;;5110731;28;20463;-72
2022/08/28 07:22:03;;;;;;;7.85;4.07;;;;;;;;;;5126812;28;20045;-72
2022/08/28 07:24:30;;;;;;;9.07;3.80;;;;;;;;;;5111103;28;20016;-72
2022/08/28 07:26:56;;;;;;;8.63;4.47;;;;;;;;;;5110478;28;20459;-73
2022/08/28 07:29:22;;;;;;;10.75;4.28;;;;;;;;;;5110876;28;20483;-72
2022/08/28 07:34:22;;;;;;;10.13;4.38;;;;;;;;;;5110895;27;20757;-73
2022/08/28 07:36:51;;;;;;;7.53;4.15;;;;;;;;;;5127151;28;20044;-73
2022/08/28 07:39:18;;;;;;;9.63;4.22;;;;;;;;;;5126994;28;20467;-73
2022/08/28 07:41:45;;;;;;;9.52;4.80;;;;;;;;;;5110755;28;20028;-72
2022/08/28 07:46:58;;;;;;;10.15;4.13;;;;;;;;;;5110925;28;20089;-73
2022/08/28 07:49:25;;;;;;;12.13;4.00;;;;;;;;;;5126873;28;20048;-72
2022/08/28 07:53:19;;;;;;;9.52;4.18;;;;;;;;;;5111950;27;20915;-72
2022/08/28 07:55:46;;;;;;;9.75;3.42;;;;;;;;;;5111040;28;20054;-72
2022/08/28 07:59:41;;;;;;;9.27;4.38;;;;;;;;;;5111546;27;20392;-73
2022/08/28 08:02:09;;;;;;;13.65;4.97;;;;;;;;;;5110819;28;20391;-74
2022/08/28 08:04:35;;;;;;;11.52;4.13;;;;;;;;;;5111279;28;20020;-73
2022/08/28 08:07:02;;;;;;;8.43;3.63;;;;;;;;;;5111279;28;20111;-73
2022/08/28 08:09:28;;;;;;;10.07;3.85;;;;;;;;;;5110556;28;20027;-73
2022/08/28 08:11:55;;;;;;;9.45;4.30;;;;;;;;;;5111341;28;20024;-73
2022/08/28 08:14:21;;;;;;;12.05;4.05;;;;;;;;;;5111562;28;20424;-72
2022/08/28 08:16:48;;;;;;;9.45;4.45;;;;;;;;;;5110468;28;20024;-72
2022/08/28 08:19:15;;;;;;;8.02;3.53;;;;;;;;;;5110941;28;20036;-72
2022/08/28 08:21:45;;;;;;;11.32;3.85;;;;;;;;;;5110874;28;20498;-73
2022/08/28 08:24:19;;;;;;;9.93;4.25;;;;;;;;;;5110655;28;20035;-72
2022/08/28 08:28:27;;;;;;;13.23;4.55;;;;;;;;;;5111296;27;20422;-73
2022/08/28 08:31:03;;;;;;;8.27;2.90;;;;;;;;;;5110644;28;20020;-72
2022/08/28 08:33:30;;;;;;;10.65;3.90;;;;;;;;;;5111383;28;20024;-73
2022/08/28 08:35:56;;;;;;;7.35;3.75;;;;;;;;;;5111304;28;20568;-72
2022/08/28 08:38:23;;;;;;;9.60;3.38;;;;;;;;;;5110703;28;20077;-73
2022/08/28 08:42:04;;;;;;;11.40;3.70;;;;;;;;;;5111606;27;20543;-72
2022/08/28 08:44:36;;;;;;;9.73;3.92;;;;;;;;;;5110677;28;20094;-73
2022/08/28 08:47:09;;;;;;;6.50;3.20;;;;;;;;;;5110965;28;20023;-72
2022/08/28 08:49:37;;;;;;;9.70;3.78;;;;;;;;;;5111219;28;20432;-73
2022/08/28 08:52:06;;;;;;;12.88;3.65;;;;;;;;;;5110388;28;20024;-72
2022/08/28 08:54:32;;;;;;;8.25;2.75;;;;;;;;;;5111132;28;20032;-73
2022/08/28 08:59:00;;;;;;;6.55;2.85;;;;;;;;;;5070506;28;20465;-72
2022/08/28 09:01:41;;;;;;;12.18;3.75;;;;;;;;;;5070781;28;20033;-72
2022/08/28 09:04:23;;;;;;;16.83;4.95;;;;;;;;;;5070570;28;20523;-72
2022/08/28 09:06:52;;;;;;;10.05;4.10;;;;;;;;;;5070631;28;20031;-72
2022/08/28 09:09:18;;;;;;;8.50;3.17;;;;;;;;;;5070501;28;20027;-72
2022/08/28 09:11:48;;;;;;;8.18;3.47;;;;;;;;;;5052083;28;20025;-72
2022/08/28 09:14:26;;;;;;;8.25;3.30;;;;;;;;;;5070619;28;20028;-72
2022/08/28 09:16:52;;;;;;;13.27;3.28;;;;;;;;;;5070550;28;20036;-72
2022/08/28 09:19:20;;;;;;;9.75;3.58;;;;;;;;;;5069963;28;20024;-72
2022/08/28 09:21:47;;;;;;;5.70;3.22;;;;;;;;;;5052305;28;20025;-72
2022/08/28 09:24:21;;;;;;;8.68;3.58;;;;;;;;;;5069988;28;20029;-72
2022/08/28 09:27:23;;;;;;;10.60;4.03;;;;;;;;;;5110908;27;20565;-72
2022/08/28 09:30:05;;;;;;;8.75;3.83;;;;;;;;;;5111442;28;20085;-73
2022/08/28 09:32:33;;;;;;;9.82;3.92;;;;;;;;;;5109532;28;20028;-73
2022/08/28 09:35:01;;;;;;;12.85;3.55;;;;;;;;;;5111123;28;20491;-73
2022/08/28 09:37:30;;;;;;;8.50;3.00;;;;;;;;;;5111370;28;20111;-73
2022/08/28 09:40:15;;;;;;;9.27;3.05;;;;;;;;;;5110717;28;20395;-74
2022/08/28 09:45:41;;;;;;;6.78;3.33;;;;;;;;;;5111088;28;20052;-74
2022/08/28 09:48:18;;;;;;;14.93;4.15;;;;;;;;;;5109159;28;20085;-73
2022/08/28 09:50:56;;;;;;;8.68;3.20;;;;;;;;;;5109564;28;20061;-73
2022/08/28 09:53:22;;;;;;;11.02;4.03;;;;;;;;;;5111335;28;20020;-73
2022/08/28 09:56:07;;;;;;;8.30;3.33;;;;;;;;;;5110314;28;20051;-73
2022/08/28 09:58:36;;;;;;;9.55;3.22;;;;;;;;;;5110622;28;20089;-73
2022/08/28 10:01:21;;;;;;;8.35;3.47;;;;;;;;;;5110209;28;20479;-73
2022/08/28 10:03:58;;;;;;;11.13;3.63;;;;;;;;;;5110721;28;20039;-74
2022/08/28 10:06:25;;;;;;;12.80;3.38;;;;;;;;;;5109135;28;20109;-73
2022/08/28 10:08:53;;;;;;;10.38;4.03;;;;;;;;;;5110305;28;20117;-74
2022/08/28 10:11:29;;;;;;;12.50;7.72;;;;;;;;;;5110856;28;20031;-73
2022/08/28 10:14:01;;;;;;;11.30;3.80;;;;;;;;;;5110837;28;20099;-73
2022/08/28 10:16:27;;;;;;;7.40;3.58;;;;;;;;;;5108746;28;20424;-74
2022/08/28 10:18:56;;;;;;;10.75;3.25;;;;;;;;;;5110516;28;20027;-73
2022/08/28 10:21:41;;;;;;;11.40;3.42;;;;;;;;;;5110554;28;20028;-73
2022/08/28 10:24:07;;;;;;;7.15;3.22;;;;;;;;;;5108998;28;20028;-74
2022/08/28 10:26:52;;;;;;;7.47;3.53;;;;;;;;;;5108698;28;20507;-73
2022/08/28 10:29:19;;;;;;;19.10;4.28;;;;;;;;;;5109776;28;20034;-74
2022/08/28 10:31:51;;;;;;;18.83;4.63;;;;;;;;;;5110300;28;20027;-73
2022/08/28 10:34:17;;;;;;;10.70;3.60;;;;;;;;;;5110077;28;20027;-73
2022/08/28 10:36:46;;;;;;;6.57;2.78;;;;;;;;;;5106905;28;20376;-73
2022/08/28 10:39:31;;;;;;;7.47;3.13;;;;;;;;;;5096698;28;20020;-73
2022/08/28 10:41:59;;;;;;;8.85;3.08;;;;;;;;;;5096441;28;20093;-73
2022/08/28 10:44:32;;;;;;;13.27;4.13;;;;;;;;;;5094707;28;20035;-74
2022/08/28 10:46:58;;;;;;;9.80;3.92;;;;;;;;;;5096236;28;20380;-73
2022/08/28 10:49:28;;;;;;;9.63;3.08;;;;;;;;;;5096310;28;20044;-74
2022/08/28 10:51:57;;;;;;;11.85;3.45;;;;;;;;;;5095927;28;20403;-73
2022/08/28 10:54:26;;;;;;;5.43;2.60;;;;;;;;;;5096121;28;20020;-73
2022/08/28 10:57:05;;;;;;;6.05;2.58;;;;;;;;;;5096208;28;20030;-73
2022/08/28 10:59:32;;;;;;;6.80;2.92;;;;;;;;;;5096595;28;20095;-73
2022/08/28 11:01:58;;;;;;;10.43;3.85;;;;;;;;;;5096022;28;20028;-73
2022/08/28 11:04:27;;;;;;;7.95;3.55;;;;;;;;;;5095669;28;20094;-73
2022/08/28 11:06:59;;;;;;;8.93;2.80;;;;;;;;;;5095725;28;20395;-73
2022/08/28 11:09:25;;;;;;;;;;;;;;;;;;5094918;28;20046;-73
2022/08/28 11:12:11;;;;;;;9.02;3.13;;;;;;;;;;5095489;28;20364;-73
2022/08/28 11:14:41;;;;;;;7.25;2.80;;;;;;;;;;5085157;28;20093;-73
2022/08/28 11:17:09;;;;;;;12.65;3.42;;;;;;;;;;5095751;28;20088;-73
2022/08/28 11:19:51;;;;;;;11.52;2.88;;;;;;;;;;5095358;28;20027;-73
2022/08/28 11:22:20;;;;;;;11.50;3.42;;;;;;;;;;5095760;28;20072;-73
2022/08/28 11:25:06;;;;;;;8.40;3.88;;;;;;;;;;5095852;28;20027;-73
2022/08/28 11:27:36;;;;;;;8.60;3.25;;;;;;;;;;5064584;28;20044;-73
2022/08/28 11:30:25;;;;;;;8.13;3.05;;;;;;;;;;5094323;28;20154;-73
2022/08/28 11:32:51;;;;;;;9.77;2.90;;;;;;;;;;5095193;28;20477;-73
2022/08/28 11:35:20;;;;;;;8.35;3.05;;;;;;;;;;5095926;28;20024;-74
2022/08/28 11:37:48;;;;;;;6.07;2.75;;;;;;;;;;5095600;28;20031;-73
2022/08/28 11:40:30;;;;;;;6.75;2.95;;;;;;;;;;5095419;28;20020;-73
2022/08/28 11:42:56;;;;;;;;;;;;;;;;;;5095700;28;20532;-73
2022/08/28 11:45:48;;;;;;;8.52;3.13;;;;;;;;;;5094299;28;20018;-73
2022/08/28 11:48:36;;;;;;;5.78;2.55;;;;;;;;;;5071500;28;20051;-74
2022/08/28 11:51:05;;;;;;;6.18;2.78;;;;;;;;;;5095828;28;20020;-74
2022/08/28 11:53:44;;;;;;;10.68;2.85;;;;;;;;;;5095691;28;20105;-74
2022/08/28 11:56:29;;;;;;;8.65;2.95;;;;;;;;;;5097029;28;20139;-73
2022/08/28 11:58:56;;;;;;;6.20;3.05;;;;;;;;;;5097409;28;20059;-73
2022/08/28 12:01:35;;;;;;;7.57;2.50;;;;;;;;;;5094645;28;20405;-73
2022/08/28 12:04:06;;;;;;;9.55;2.92;;;;;;;;;;5094957;28;20025;-73
2022/08/28 12:06:47;;;;;;;7.95;3.63;;;;;;;;;;5094892;28;20032;-74
2022/08/28 12:09:25;;;;;;;7.65;2.95;;;;;;;;;;5094404;28;20020;-73
2022/08/28 12:11:56;;;;;;;13.68;3.35;;;;;;;;;;5094716;28;20032;-73
2022/08/28 12:14:26;;;;;;;9.85;3.38;;;;;;;;;;5094189;28;20508;-73
2022/08/28 12:16:58;;;;;;;6.13;3.15;;;;;;;;;;5094584;28;20020;-74
2022/08/28 12:19:35;;;;;;;9.52;2.70;;;;;;;;;;5094633;28;20107;-74
2022/08/28 12:22:05;;;;;;;8.65;2.85;;;;;;;;;;5094279;28;20027;-74
2022/08/28 12:24:33;;;;;;;7.10;2.92;;;;;;;;;;5094693;28;20024;-73
2022/08/28 12:27:01;;;;;;;5.40;2.40;;;;;;;;;;5094143;28;20040;-73
2022/08/28 12:29:34;;;;;;;9.63;2.75;;;;;;;;;;5094072;28;20020;-73
2022/08/28 12:32:12;;;;;;;9.48;3.70;;;;;;;;;;5093048;28;20024;-73
2022/08/28 12:34:54;;;;;;;7.05;2.30;;;;;;;;;;5094428;28;20380;-74
2022/08/28 12:37:23;;;;;;;8.35;2.95;;;;;;;;;;5093871;28;20028;-74
2022/08/28 12:39:49;;;;;;;4.47;2.28;;;;;;;;;;5094339;28;20031;-73
2022/08/28 12:42:19;;;;;;;6.20;2.88;;;;;;;;;;5093571;28;20052;-73
2022/08/28 12:44:46;;;;;;;12.63;5.38;;;;;;;;;;5094108;28;20016;-73
2022/08/28 12:47:17;;;;;;;8.40;3.05;;;;;;;;;;5093928;28;20024;-73
2022/08/28 12:49:44;;;;;;;9.52;6.25;;;;;;;;;;5093778;28;20487;-73
2022/08/28 12:52:12;;;;;;;5.82;2.40;;;;;;;;;;5093933;28;20032;-72
2022/08/28 12:54:38;;;;;;;6.13;3.20;;;;;;;;;;5094134;28;20016;-72
2022/08/28 12:57:06;;;;;;;8.25;3.00;;;;;;;;;;5093386;28;20107;-73
2022/08/28 12:59:35;;;;;;;10.60;3.10;;;;;;;;;;5094120;28;20020;-73
2022/08/28 13:02:02;;;;;;;6.35;2.70;;;;;;;;;;5094016;28;20424;-74
2022/08/28 13:04:36;;;;;;;10.05;3.03;;;;;;;;;;5093488;28;20050;-73
2022/08/28 13:07:09;;;;;;;6.32;2.40;;;;;;;;;;5093646;28;20082;-73
2022/08/28 13:09:36;;;;;;;7.63;2.67;;;;;;;;;;5094241;28;20020;-73
2022/08/28 13:12:02;;;;;;;5.13;2.40;;;;;;;;;;5093228;28;20032;-73
2022/08/28 13:14:39;;;;;;;5.25;2.28;;;;;;;;;;5094044;28;20035;-73
2022/08/28 13:17:06;;;;;;;8.20;2.67;;;;;;;;;;5094019;28;20096;-73
2022/08/28 13:19:33;;;;;;;4.80;2.55;;;;;;;;;;5093032;28;20028;-73
2022/08/28 13:22:00;;;;;;;11.25;2.67;;;;;;;;;;5092244;28;20070;-72
2022/08/28 13:24:45;;;;;;;10.30;2.53;;;;;;;;;;5093274;28;20031;-73
2022/08/28 13:27:11;;;;;;;8.85;2.58;;;;;;;;;;5093272;28;20496;-73
2022/08/28 13:29:40;;;;;;;5.68;2.53;;;;;;;;;;5092308;28;20047;-73
2022/08/28 13:32:14;;;;;;;7.47;2.42;;;;;;;;;;5093014;28;20038;-73
2022/08/28 13:34:40;;;;;;;6.78;2.78;;;;;;;;;;5093669;28;20448;-73
2022/08/28 13:37:08;;;;;;;7.22;2.58;;;;;;;;;;5093409;28;20076;-73
2022/08/28 13:39:35;;;;;;;11.32;2.70;;;;;;;;;;5091930;28;20020;-74
2022/08/28 13:42:06;;;;;;;5.45;2.60;;;;;;;;;;5093625;28;20091;-73
2022/08/28 13:44:32;;;;;;;9.30;2.47;;;;;;;;;;5093516;28;20035;-72
2022/08/28 13:47:00;;;;;;;8.43;2.40;;;;;;;;;;5091604;28;20044;-73
2022/08/28 13:49:26;;;;;;;5.07;2.28;;;;;;;;;;5093342;28;20069;-73
2022/08/28 13:51:54;;;;;;;4.15;2.13;;;;;;;;;;5093315;28;20044;-73
2022/08/28 13:54:20;;;;;;;7.93;2.20;;;;;;;;;;5091579;28;20024;-73
2022/08/28 13:56:46;;;;;;;5.75;2.40;;;;;;;;;;5093306;28;20468;-74
2022/08/28 13:59:12;;;;;;;6.35;2.20;;;;;;;;;;5092113;28;20059;-73
2022/08/28 14:04:23;;;;;;;6.28;2.38;;;;;;;;;;5093520;28;20071;-74
2022/08/28 14:06:49;;;;;;;7.25;2.67;;;;;;;;;;5092924;28;20032;-73
2022/08/28 14:09:15;;;;;;;7.05;2.50;;;;;;;;;;5093215;28;20025;-73
2022/08/28 14:11:42;;;;;;;5.32;2.00;;;;;;;;;;5093217;28;20028;-74
2022/08/28 14:14:08;;;;;;;7.15;2.75;;;;;;;;;;5096612;28;20059;-73
2022/08/28 14:16:35;;;;;;;4.22;2.03;;;;;;;;;;5096999;28;20032;-73
2022/08/28 14:19:03;;;;;;;4.63;2.00;;;;;;;;;;5096952;28;20052;-73
2022/08/28 14:21:29;;;;;;;3.95;2.00;;;;;;;;;;5096911;28;20024;-74
2022/08/28 14:23:55;;;;;;;5.35;2.50;;;;;;;;;;5096791;28;20099;-74
2022/08/28 14:26:22;;;;;;;4.88;2.05;;;;;;;;;;5096530;28;20048;-74
2022/08/28 14:28:48;;;;;;;7.57;2.47;;;;;;;;;;5096298;28;20024;-73
2022/08/28 14:31:14;;;;;;;7.30;2.50;;;;;;;;;;5096709;28;20059;-73
2022/08/28 14:33:40;;;;;;;7.13;2.88;;;;;;;;;;5096916;28;20020;-73
2022/08/28 14:36:07;;;;;;;13.73;2.58;;;;;;;;;;5096479;28;20168;-73
2022/08/28 14:38:33;;;;;;;8.40;2.50;;;;;;;;;;5096548;28;20048;-74
2022/08/28 14:40:59;;;;;;;8.25;2.78;;;;;;;;;;5096503;28;20103;-73
2022/08/28 14:43:26;;;;;;;6.32;2.67;;;;;;;;;;5096087;28;20407;-73
2022/08/28 14:45:52;;;;;;;7.95;2.67;;;;;;;;;;5096486;28;20034;-73
2022/08/28 14:48:18;;;;;;;7.38;2.60;;;;;;;;;;5096311;28;20020;-73
2022/08/28 14:50:46;;;;;;;6.07;2.70;;;;;;;;;;5095900;28;20028;-73
2022/08/28 14:53:13;;;;;;;5.43;2.35;;;;;;;;;;5096252;28;20031;-73
2022/08/28 14:55:44;;;;;;;5.15;2.03;;;;;;;;;;5096444;28;20069;-73
2022/08/28 14:58:11;;;;;;;4.78;2.10;;;;;;;;;;5095805;28;20020;-73
2022/08/28 15:00:38;;;;;;;3.42;2.00;;;;;;;;;;5096165;28;20085;-73
2022/08/28 15:03:05;;;;;;;4.10;2.15;;;;;;;;;;5095682;28;20052;-73
2022/08/28 15:05:32;;;;;;;3.88;2.10;;;;;;;;;;5096018;28;20103;-73
2022/08/28 15:07:58;;;;;;;5.35;2.50;;;;;;;;;;5095924;28;20058;-73
2022/08/28 15:10:24;;;;;;;6.05;2.10;;;;;;;;;;5095843;28;20015;-72
2022/08/28 15:12:51;;;;;;;4.95;2.38;;;;;;;;;;5096082;28;20028;-72
2022/08/28 15:15:19;;;;;;;6.57;2.20;;;;;;;;;;5095867;28;20028;-72
2022/08/28 15:17:45;;;;;;;8.27;2.45;;;;;;;;;;5095864;28;20024;-72
2022/08/28 15:20:12;;;;;;;5.18;2.33;;;;;;;;;;5095930;28;20433;-71
2022/08/28 15:22:38;;;;;;;5.63;2.58;;;;;;;;;;5095666;28;20028;-72
2022/08/28 15:25:05;;;;;;;5.32;2.13;;;;;;;;;;5094835;28;20107;-72
2022/08/28 15:27:31;;;;;;;5.68;2.03;;;;;;;;;;5095913;28;20027;-72
2022/08/28 15:29:58;;;;;;;3.55;2.08;;;;;;;;;;5095572;28;20033;-72
2022/08/28 15:32:25;;;;;;;5.88;1.98;;;;;;;;;;5095022;28;20043;-74
2022/08/28 15:34:51;;;;;;;5.05;2.20;;;;;;;;;;5095534;28;20537;-74
2022/08/28 15:37:17;;;;;;;5.95;2.38;;;;;;;;;;5095512;28;20073;-72
2022/08/28 15:42:28;;;;;;;5.35;2.10;;;;;;;;;;5095212;28;20035;-72
2022/08/28 15:44:54;;;;;;;6.68;2.60;;;;;;;;;;5094132;28;20020;-73
2022/08/28 15:47:20;;;;;;;6.47;2.22;;;;;;;;;;5094657;28;20046;-73
2022/08/28 15:49:52;;;;;;;5.07;1.90;;;;;;;;;;5095116;28;20480;-73
2022/08/28 15:52:19;;;;;;;6.13;2.42;;;;;;;;;;5094800;28;20049;-73
2022/08/28 15:54:45;;;;;;;7.45;3.10;;;;;;;;;;5095252;28;20021;-72
2022/08/28 15:57:11;;;;;;;5.95;2.78;;;;;;;;;;5095084;28;20047;-74
2022/08/28 15:59:37;;;;;;;5.35;2.40;;;;;;;;;;5094613;28;20035;-73
2022/08/28 16:02:04;;;;;;;7.28;2.55;;;;;;;;;;5094842;28;20067;-74
2022/08/28 16:04:30;;;;;;;7.25;2.35;;;;;;;;;;5094783;28;20028;-72
2022/08/28 16:06:57;;;;;;;6.80;2.70;;;;;;;;;;5094192;28;20032;-72
2022/08/28 16:09:23;;;;;;;6.65;2.85;;;;;;;;;;5095041;28;20012;-73
2022/08/28 16:11:49;;;;;;;4.88;2.28;;;;;;;;;;5094653;28;20047;-73
2022/08/28 16:14:15;;;;;;;6.25;2.65;;;;;;;;;;5092857;28;20020;-74
2022/08/28 16:16:42;;;;;;;8.20;2.92;;;;;;;;;;5093370;28;20461;-74
2022/08/28 16:19:08;;;;;;;6.85;3.03;;;;;;;;;;5094611;28;20031;-74
2022/08/28 16:21:34;;;;;;;6.05;3.00;;;;;;;;;;5094108;28;20020;-73
2022/08/28 16:24:00;;;;;;;6.57;3.03;;;;;;;;;;5094794;28;20099;-73
2022/08/28 16:26:26;;;;;;;8.55;3.70;;;;;;;;;;5094179;28;20052;-74
2022/08/28 16:28:52;;;;;;;10.88;3.90;;;;;;;;;;5094061;28;20081;-74
2022/08/28 16:31:18;;;;;;;8.15;2.63;;;;;;;;;;5094495;28;20028;-73
2022/08/28 16:33:45;;;;;;;7.47;2.90;;;;;;;;;;5093034;28;20384;-74
2022/08/28 16:36:12;;;;;;;10.13;3.60;;;;;;;;;;5093726;28;20031;-74
2022/08/28 16:38:40;;;;;;;6.82;2.85;;;;;;;;;;5094172;28;20016;-73
2022/08/28 16:41:15;;;;;;;8.32;2.97;;;;;;;;;;5094260;28;20030;-74